Time;durP1;ratioP1;P1;durP2;ratioP2;P2;SDS_P1;SDS_P2;PMS_P1;PMS_P2;Temp;Humidity;BMP_temperature;BMP_pressure;BME280_temperature;BME280_humidity;BME280_pressure;Samples;Min_cycle;Max_cycle;Signal;HPM_P1;HPM_P2
2022/07/03 00:01:55;;;;;;;3.88;2.10;;;21.90;93.60;;;;;;5044730;28;20208;-41
2022/07/03 00:04:22;;;;;;;2.35;1.73;;;21.90;93.70;;;;;;5050369;28;20618;-41
2022/07/03 00:06:53;;;;;;;5.40;2.10;;;21.80;93.50;;;;;;5049890;28;20226;-41
2022/07/03 00:09:20;;;;;;;2.28;1.52;;;21.80;93.80;;;;;;5049510;28;20253;-42
2022/07/03 00:11:48;;;;;;;2.88;1.60;;;21.70;93.60;;;;;;5047869;28;20208;-42
2022/07/03 00:14:16;;;;;;;2.35;1.70;;;21.70;93.60;;;;;;5048461;28;20730;-42
2022/07/03 00:16:44;;;;;;;3.95;1.33;;;21.60;93.60;;;;;;5049322;28;20729;-42
2022/07/03 00:19:14;;;;;;;3.33;1.30;;;21.60;93.60;;;;;;5049588;28;20635;-42
2022/07/03 00:21:50;;;;;;;4.45;1.65;;;21.50;93.60;;;;;;5038153;28;20595;-41
2022/07/03 00:24:26;;;;;;;3.00;1.35;;;21.50;93.80;;;;;;5049916;28;20623;-42
2022/07/03 00:26:54;;;;;;;2.83;1.42;;;21.50;93.70;;;;;;5048820;28;20204;-41
2022/07/03 00:29:26;;;;;;;1.98;1.20;;;21.40;93.60;;;;;;5048507;28;20303;-42
2022/07/03 00:31:54;;;;;;;2.22;1.13;;;21.40;93.60;;;;;;5047914;28;20216;-42
2022/07/03 00:34:26;;;;;;;1.55;1.35;;;21.30;93.60;;;;;;5049973;28;20301;-42
2022/07/03 00:36:56;;;;;;;1.60;1.10;;;21.30;93.70;;;;;;5047866;28;20606;-42
2022/07/03 00:39:24;;;;;;;2.05;1.00;;;21.20;93.60;;;;;;5047125;28;20674;-41
2022/07/03 00:42:01;;;;;;;2.65;1.23;;;21.20;93.50;;;;;;5048645;28;20572;-42
2022/07/03 00:44:29;;;;;;;2.80;1.20;;;21.20;93.70;;;;;;5064353;28;20222;-42
2022/07/03 00:47:06;;;;;;;2.78;1.38;;;21.10;93.60;;;;;;5048948;28;20304;-42
2022/07/03 00:49:36;;;;;;;4.72;1.10;;;21.10;93.80;;;;;;5048268;28;20256;-42
2022/07/03 00:52:05;;;;;;;1.92;1.00;;;21.10;93.60;;;;;;5047882;28;20220;-42
2022/07/03 00:54:35;;;;;;;2.58;1.10;;;21.00;93.70;;;;;;5046346;28;20576;-42
2022/07/03 00:57:03;;;;;;;2.15;0.90;;;20.90;93.70;;;;;;5036398;28;20288;-42
2022/07/03 00:59:30;;;;;;;1.67;1.23;;;20.90;93.70;;;;;;5047168;28;20282;-42
2022/07/03 01:02:05;;;;;;;5.15;1.15;;;20.90;93.70;;;;;;5047169;28;20693;-42
2022/07/03 01:04:46;;;;;;;2.63;1.13;;;20.90;93.70;;;;;;5047866;28;20224;-42
2022/07/03 01:07:22;;;;;;;1.80;1.20;;;20.90;93.80;;;;;;5028883;28;20228;-41
2022/07/03 01:10:26;;;;;;;2.25;1.23;;;20.80;93.50;;;;;;5037729;28;21289;-41
2022/07/03 01:13:17;;;;;;;2.67;1.52;;;20.80;93.90;;;;;;5046511;28;20704;-41
2022/07/03 01:15:56;;;;;;;6.03;1.45;;;20.70;93.50;;;;;;5037686;28;20215;-41
2022/07/03 01:19:19;;;;;;;1.92;1.20;;;20.70;93.80;;;;;;5048647;28;20206;-41
2022/07/03 01:22:00;;;;;;;4.22;1.20;;;20.60;93.90;;;;;;5030708;28;20210;-41
2022/07/03 01:24:48;;;;;;;5.00;1.45;;;20.50;93.70;;;;;;5046249;28;20355;-41
2022/07/03 01:27:34;;;;;;;2.13;1.30;;;20.50;94.10;;;;;;5043521;28;20205;-41
2022/07/03 01:30:10;;;;;;;2.67;1.20;;;20.50;93.90;;;;;;5047869;28;20846;-41
2022/07/03 01:32:53;;;;;;;1.80;1.58;;;20.50;93.90;;;;;;5047680;28;20208;-41
2022/07/03 01:35:31;;;;;;;3.25;1.70;;;20.50;93.90;;;;;;5046931;28;20280;-41
2022/07/03 01:38:06;;;;;;;4.38;1.30;;;20.40;94.30;;;;;;5045428;28;20238;-41
2022/07/03 01:40:40;;;;;;;7.63;1.40;;;20.50;93.90;;;;;;5046926;28;20629;-41
2022/07/03 01:43:14;;;;;;;2.70;1.17;;;20.40;93.90;;;;;;5047642;28;20201;-43
2022/07/03 01:45:44;;;;;;;2.65;1.58;;;20.40;94.00;;;;;;5047951;28;20298;-43
2022/07/03 01:48:15;;;;;;;5.60;1.67;;;20.40;94.00;;;;;;5039603;28;20670;-43
2022/07/03 01:50:46;;;;;;;1.70;1.15;;;20.40;94.00;;;;;;5047630;28;20278;-41
2022/07/03 01:53:15;;;;;;;3.35;1.30;;;20.40;94.00;;;;;;5046638;28;20734;-41
2022/07/03 01:55:43;;;;;;;1.50;1.33;;;20.40;93.90;;;;;;5038198;28;20569;-41
2022/07/03 01:58:11;;;;;;;3.67;1.33;;;20.50;94.00;;;;;;5043876;28;20236;-41
2022/07/03 02:00:49;;;;;;;1.83;1.25;;;20.40;94.00;;;;;;5040473;28;20204;-41
2022/07/03 02:03:27;;;;;;;1.50;0.98;;;20.40;94.10;;;;;;5046278;28;20270;-41
2022/07/03 02:06:02;;;;;;;3.30;1.23;;;20.40;94.10;;;;;;5045350;28;20268;-41
2022/07/03 02:08:48;;;;;;;1.17;0.88;;;20.40;94.10;;;;;;5046064;28;20204;-41
2022/07/03 02:11:39;;;;;;;3.83;1.00;;;20.40;94.30;;;;;;5045684;28;20298;-41
2022/07/03 02:14:23;;;;;;;1.65;1.00;;;20.40;94.10;;;;;;5046503;28;20282;-41
2022/07/03 02:17:20;;;;;;;0.90;0.80;;;20.40;94.10;;;;;;5046153;28;20212;-41
2022/07/03 02:19:59;;;;;;;1.80;0.95;;;20.40;94.10;;;;;;5041415;28;20228;-40
2022/07/03 02:23:07;;;;;;;3.20;1.23;;;20.30;93.90;;;;;;5032327;28;20226;-41
2022/07/03 02:25:42;;;;;;;2.20;1.00;;;20.30;93.90;;;;;;5023562;28;20693;-41
2022/07/03 02:28:46;;;;;;;2.53;1.13;;;20.30;93.90;;;;;;5045881;28;20204;-41
2022/07/03 02:31:18;;;;;;;1.77;0.80;;;20.30;94.00;;;;;;5043714;28;20265;-41
2022/07/03 02:33:48;;;;;;;4.13;1.08;;;20.20;93.90;;;;;;5047121;28;20220;-41
2022/07/03 02:36:23;;;;;;;1.08;0.77;;;20.20;93.90;;;;;;5047584;28;20254;-43
2022/07/03 02:38:56;;;;;;;1.25;0.70;;;20.20;93.80;;;;;;5047234;28;20273;-41
2022/07/03 02:41:37;;;;;;;3.22;0.93;;;20.20;93.80;;;;;;5046690;28;20301;-41
2022/07/03 02:44:28;;;;;;;1.88;0.73;;;20.20;93.80;;;;;;5047617;28;20216;-41
2022/07/03 02:47:22;;;;;;;0.68;0.68;;;20.10;93.80;;;;;;5045683;28;20204;-41
2022/07/03 02:49:58;;;;;;;1.15;0.65;;;20.10;93.80;;;;;;5047462;28;20223;-41
2022/07/03 02:52:34;;;;;;;1.98;0.75;;;20.10;93.80;;;;;;5061838;28;20211;-41
2022/07/03 02:55:42;;;;;;;1.25;0.70;;;20.10;93.80;;;;;;5048012;28;20350;-41
2022/07/03 02:58:20;;;;;;;1.17;0.70;;;20.00;93.70;;;;;;5026798;28;20630;-41
2022/07/03 03:01:02;;;;;;;1.95;0.70;;;20.00;93.60;;;;;;5035998;28;20221;-44
2022/07/03 03:03:32;;;;;;;1.40;0.68;;;20.00;93.60;;;;;;5050987;28;20203;-45
2022/07/03 03:06:11;;;;;;;1.90;0.70;;;20.00;93.60;;;;;;5048616;28;20215;-45
2022/07/03 03:08:48;;;;;;;4.40;0.90;;;19.90;93.50;;;;;;5048592;28;20253;-42
2022/07/03 03:11:33;;;;;;;3.25;0.80;;;19.90;93.60;;;;;;5064493;28;20606;-42
2022/07/03 03:14:05;;;;;;;1.85;0.70;;;19.90;93.60;;;;;;5050643;28;20224;-43
2022/07/03 03:16:32;;;;;;;1.08;0.60;;;19.80;93.50;;;;;;5049437;28;20760;-43
2022/07/03 03:19:02;;;;;;;1.65;0.68;;;19.80;93.60;;;;;;5050291;28;20207;-42
2022/07/03 03:21:37;;;;;;;1.95;1.08;;;19.80;93.50;;;;;;5053295;28;20200;-42
2022/07/03 03:24:06;;;;;;;1.45;0.68;;;19.80;93.50;;;;;;5050875;28;20207;-42
2022/07/03 03:26:35;;;;;;;1.38;0.75;;;19.70;93.40;;;;;;5049202;28;20220;-43
2022/07/03 03:29:07;;;;;;;0.80;0.80;;;19.70;93.40;;;;;;5046182;28;20215;-42
2022/07/03 03:31:35;;;;;;;1.35;0.82;;;19.70;93.40;;;;;;5039650;28;20266;-42
2022/07/03 03:34:03;;;;;;;2.15;0.88;;;19.70;93.50;;;;;;5049791;28;20223;-42
2022/07/03 03:36:33;;;;;;;1.92;0.93;;;19.70;93.50;;;;;;5049392;28;20236;-41
2022/07/03 03:39:03;;;;;;;1.05;0.90;;;19.70;93.70;;;;;;5048652;28;20206;-41
2022/07/03 03:41:34;;;;;;;0.95;0.75;;;19.70;93.70;;;;;;5050016;28;20573;-42
2022/07/03 03:44:04;;;;;;;1.35;1.00;;;19.70;93.70;;;;;;5066513;28;20669;-42
2022/07/03 03:46:31;;;;;;;2.35;1.15;;;19.70;93.80;;;;;;5047711;28;20200;-42
2022/07/03 03:48:58;;;;;;;1.92;1.17;;;19.70;93.80;;;;;;5048979;28;20196;-42
2022/07/03 03:51:28;;;;;;;2.38;0.95;;;19.70;93.90;;;;;;5052192;28;20227;-42
2022/07/03 03:53:55;;;;;;;1.83;1.02;;;19.70;93.90;;;;;;5051030;28;20285;-41
2022/07/03 03:56:26;;;;;;;3.05;1.27;;;19.70;94.00;;;;;;5048871;28;20641;-42
2022/07/03 03:58:56;;;;;;;1.52;1.00;;;19.70;94.00;;;;;;5048907;28;20749;-41
2022/07/03 04:01:25;;;;;;;2.80;1.35;;;19.70;94.10;;;;;;5047237;28;20213;-30
2022/07/03 04:03:53;;;;;;;2.13;1.15;;;19.70;94.10;;;;;;5050229;28;20270;-30
2022/07/03 04:06:20;;;;;;;1.20;1.10;;;19.70;94.40;;;;;;5049665;28;20629;-30
2022/07/03 04:08:50;;;;;;;1.73;1.05;;;19.70;94.10;;;;;;5048479;28;20220;-30
2022/07/03 04:11:18;;;;;;;6.75;1.45;;;19.70;94.20;;;;;;5048047;28;20299;-30
2022/07/03 04:13:46;;;;;;;2.40;1.10;;;19.70;94.20;;;;;;5048723;28;20277;-30
2022/07/03 04:16:15;;;;;;;2.65;1.00;;;19.70;94.20;;;;;;5049370;28;20704;-30
2022/07/03 04:18:45;;;;;;;2.00;1.40;;;19.70;94.20;;;;;;5049921;28;20254;-30
2022/07/03 04:21:15;;;;;;;1.95;1.13;;;19.70;94.30;;;;;;5049207;28;20228;-30
2022/07/03 04:23:42;;;;;;;2.05;1.10;;;19.70;94.30;;;;;;5050629;28;20234;-42
2022/07/03 04:26:09;;;;;;;1.13;0.85;;;19.70;94.40;;;;;;5048462;28;20341;-42
2022/07/03 04:28:46;;;;;;;2.03;1.17;;;19.70;94.40;;;;;;5043950;28;20682;-42
2022/07/03 04:31:14;;;;;;;2.33;1.10;;;19.70;94.40;;;;;;5037529;28;20213;-42
2022/07/03 04:33:44;;;;;;;1.73;1.02;;;19.70;94.40;;;;;;5043307;28;20201;-42
2022/07/03 04:36:19;;;;;;;2.10;1.00;;;19.70;94.50;;;;;;5048516;28;20311;-41
2022/07/03 04:38:48;;;;;;;1.80;1.00;;;19.70;94.50;;;;;;5048103;28;20299;-42
2022/07/03 04:41:16;;;;;;;4.13;1.00;;;19.70;94.50;;;;;;5047694;28;20654;-42
2022/07/03 04:43:43;;;;;;;1.90;1.00;;;19.70;94.50;;;;;;5049494;28;20262;-42
2022/07/03 04:46:10;;;;;;;1.60;1.10;;;19.70;94.50;;;;;;5056155;28;20212;-42
2022/07/03 04:48:38;;;;;;;0.98;0.90;;;19.70;94.50;;;;;;5047773;28;20218;-42
2022/07/03 04:51:06;;;;;;;2.17;1.33;;;19.70;94.60;;;;;;5049428;28;20665;-42
2022/07/03 04:53:33;;;;;;;1.92;1.10;;;19.70;94.60;;;;;;5048383;28;20215;-42
2022/07/03 04:56:00;;;;;;;1.35;1.13;;;19.70;94.60;;;;;;5049438;28;20254;-31
2022/07/03 04:58:30;;;;;;;1.23;1.00;;;19.70;94.60;;;;;;5053525;28;20258;-31
2022/07/03 05:00:57;;;;;;;1.77;1.27;;;19.70;94.60;;;;;;5045068;28;20586;-31
2022/07/03 05:03:24;;;;;;;1.45;1.00;;;19.70;94.60;;;;;;5049013;28;20208;-31
2022/07/03 05:05:54;;;;;;;1.75;1.23;;;19.70;94.70;;;;;;5048654;28;20245;-31
2022/07/03 05:08:21;;;;;;;2.50;1.00;;;19.70;94.70;;;;;;5049357;28;20275;-31
2022/07/03 05:10:51;;;;;;;2.75;1.30;;;19.70;94.70;;;;;;5048621;28;20208;-31
2022/07/03 05:13:21;;;;;;;2.33;1.02;;;19.70;94.70;;;;;;5049317;28;20310;-31
2022/07/03 05:15:50;;;;;;;1.25;1.00;;;19.80;94.70;;;;;;5045526;28;20220;-31
2022/07/03 05:18:18;;;;;;;1.02;0.90;;;19.80;94.80;;;;;;5047648;28;20664;-31
2022/07/03 05:20:48;;;;;;;1.08;0.90;;;19.80;94.80;;;;;;5046311;28;20206;-31
2022/07/03 05:23:15;;;;;;;2.85;1.10;;;19.90;94.80;;;;;;5046558;28;20197;-31
2022/07/03 05:25:43;;;;;;;2.88;1.13;;;19.90;94.80;;;;;;5045887;28;20638;-31
2022/07/03 05:28:10;;;;;;;1.23;1.13;;;19.90;94.80;;;;;;5062761;28;20215;-31
2022/07/03 05:30:42;;;;;;;1.10;1.00;;;19.90;95.10;;;;;;5049374;28;20646;-32
2022/07/03 05:33:15;;;;;;;2.55;0.90;;;20.00;94.90;;;;;;5032178;28;20753;-31
2022/07/03 05:35:45;;;;;;;1.02;0.82;;;20.00;94.90;;;;;;5047698;28;20234;-31
2022/07/03 05:38:13;;;;;;;1.45;0.90;;;20.10;95.00;;;;;;5045034;28;20614;-31
2022/07/03 05:40:40;;;;;;;1.42;0.95;;;20.10;94.90;;;;;;5046003;28;20216;-31
2022/07/03 05:43:07;;;;;;;2.63;1.20;;;20.20;95.00;;;;;;5047348;28;20250;-31
2022/07/03 05:45:37;;;;;;;1.15;0.95;;;20.20;95.00;;;;;;5048098;28;20762;-32
2022/07/03 05:48:05;;;;;;;3.15;0.90;;;20.20;95.00;;;;;;5046800;28;20212;-31
2022/07/03 05:50:32;;;;;;;1.60;0.77;;;20.20;95.00;;;;;;5045640;28;20262;-31
2022/07/03 05:53:01;;;;;;;3.00;1.23;;;20.30;95.10;;;;;;5036797;28;20205;-31
2022/07/03 05:55:29;;;;;;;1.33;0.90;;;20.30;95.10;;;;;;5047269;28;20231;-41
2022/07/03 05:57:56;;;;;;;1.27;0.80;;;20.30;95.10;;;;;;5046847;28;20646;-42
2022/07/03 06:00:23;;;;;;;1.02;0.60;;;20.40;95.20;;;;;;5047110;28;20204;-41
2022/07/03 06:02:52;;;;;;;1.48;0.80;;;20.40;95.10;;;;;;5047368;28;20217;-41
2022/07/03 06:05:20;;;;;;;1.67;0.70;;;20.50;95.10;;;;;;5047316;28;20223;-31
2022/07/03 06:07:47;;;;;;;2.95;1.40;;;20.60;94.90;;;;;;5046512;28;20677;-31
2022/07/03 06:10:17;;;;;;;1.88;0.70;;;20.60;94.90;;;;;;5044048;28;20204;-31
2022/07/03 06:12:44;;;;;;;1.20;0.70;;;20.60;94.90;;;;;;5045049;28;20208;-30
2022/07/03 06:15:11;;;;;;;1.88;0.63;;;20.50;94.80;;;;;;5047670;28;20216;-31
2022/07/03 06:17:39;;;;;;;1.58;0.70;;;20.60;94.90;;;;;;5045100;28;20254;-31
2022/07/03 06:20:06;;;;;;;1.50;0.70;;;20.60;94.90;;;;;;5061898;28;20212;-31
2022/07/03 06:22:34;;;;;;;1.92;0.98;;;20.70;95.00;;;;;;5047147;28;20878;-31
2022/07/03 06:25:05;;;;;;;2.88;1.00;;;20.70;95.20;;;;;;5045465;28;20558;-31
2022/07/03 06:27:37;;;;;;;1.42;0.90;;;20.70;95.10;;;;;;5036125;28;20215;-31
2022/07/03 06:30:07;;;;;;;2.72;1.27;;;20.70;95.10;;;;;;5034159;28;20710;-31
2022/07/03 06:32:37;;;;;;;2.30;1.08;;;20.80;95.10;;;;;;5044113;28;20202;-31
2022/07/03 06:35:12;;;;;;;2.33;1.08;;;20.80;95.00;;;;;;5062935;28;20320;-31
2022/07/03 06:37:39;;;;;;;2.08;1.27;;;20.80;95.10;;;;;;5045431;28;20327;-31
2022/07/03 06:40:11;;;;;;;1.10;0.98;;;20.80;95.10;;;;;;5046505;28;20237;-31
2022/07/03 06:42:41;;;;;;;2.63;1.50;;;20.80;95.00;;;;;;5045057;28;20694;-31
2022/07/03 06:45:11;;;;;;;2.92;1.38;;;20.80;94.90;;;;;;5046591;28;20200;-31
2022/07/03 06:47:39;;;;;;;2.20;1.30;;;20.80;95.00;;;;;;5046877;28;20207;-31
2022/07/03 06:50:09;;;;;;;2.08;1.20;;;20.80;95.00;;;;;;5042397;28;20793;-31
2022/07/03 06:52:36;;;;;;;2.28;1.15;;;20.80;95.00;;;;;;5042546;28;20208;-31
2022/07/03 06:55:04;;;;;;;1.10;1.00;;;20.80;95.20;;;;;;5054935;28;20219;-31
2022/07/03 06:57:31;;;;;;;2.60;1.02;;;20.80;95.20;;;;;;5052625;28;20212;-31
2022/07/03 06:59:58;;;;;;;2.67;1.10;;;20.90;95.10;;;;;;5032057;28;20236;-31
2022/07/03 07:02:25;;;;;;;2.20;1.27;;;21.00;95.20;;;;;;5035623;28;20221;-41
2022/07/03 07:04:55;;;;;;;6.00;1.27;;;21.00;95.20;;;;;;5044875;28;20228;-41
2022/07/03 07:07:22;;;;;;;2.30;0.95;;;21.10;95.30;;;;;;5046817;28;20215;-41
2022/07/03 07:09:54;;;;;;;1.08;0.90;;;21.10;95.30;;;;;;5046343;28;20285;-41
2022/07/03 07:12:22;;;;;;;2.67;1.10;;;21.20;95.40;;;;;;5042647;28;20204;-41
2022/07/03 07:14:51;;;;;;;1.67;0.98;;;21.20;95.40;;;;;;5037295;28;20310;-41
2022/07/03 07:17:21;;;;;;;1.85;0.90;;;21.20;95.40;;;;;;5042320;28;20220;-41
2022/07/03 07:19:48;;;;;;;3.47;1.20;;;21.30;95.40;;;;;;5041070;28;20200;-41
2022/07/03 07:22:18;;;;;;;0.70;0.70;;;21.40;95.50;;;;;;5044961;28;20283;-41
2022/07/03 07:24:45;;;;;;;2.38;1.15;;;21.40;95.50;;;;;;5044781;28;20597;-41
2022/07/03 07:27:12;;;;;;;1.20;0.90;;;21.50;95.60;;;;;;5039650;28;20215;-40
2022/07/03 07:29:40;;;;;;;2.00;0.90;;;21.50;95.60;;;;;;5061141;28;20204;-41
2022/07/03 07:32:11;;;;;;;1.95;1.00;;;21.60;95.50;;;;;;5044637;28;20306;-40
2022/07/03 07:34:40;;;;;;;2.22;0.90;;;21.60;95.60;;;;;;5032194;28;20226;-31
2022/07/03 07:37:08;;;;;;;2.67;1.05;;;21.60;95.60;;;;;;5042041;28;20235;-32
2022/07/03 07:39:35;;;;;;;1.75;0.70;;;21.70;95.70;;;;;;5042820;28;20196;-31
2022/07/03 07:42:03;;;;;;;3.25;1.02;;;21.70;95.60;;;;;;5044926;28;20204;-31
2022/07/03 07:44:34;;;;;;;2.42;0.90;;;21.70;95.60;;;;;;5045430;28;20204;-31
2022/07/03 07:47:02;;;;;;;2.08;0.80;;;21.70;95.60;;;;;;5044510;28;20204;-31
2022/07/03 07:49:31;;;;;;;2.47;1.08;;;21.80;95.60;;;;;;5044310;28;20635;-31
2022/07/03 07:51:59;;;;;;;2.90;0.85;;;21.80;95.50;;;;;;5037080;28;20196;-31
2022/07/03 07:54:26;;;;;;;1.35;1.00;;;21.80;95.50;;;;;;5038225;28;20247;-31
2022/07/03 07:56:55;;;;;;;1.92;0.70;;;21.80;95.80;;;;;;5048217;28;20664;-31
2022/07/03 07:59:23;;;;;;;1.13;0.85;;;21.80;95.50;;;;;;5047244;28;20658;-32
2022/07/03 08:07:26;;;;;;;2.95;0.65;;;21.80;95.60;;;;;;5044709;28;20600;-31
2022/07/03 08:09:54;;;;;;;1.50;0.75;;;21.80;95.70;;;;;;5045172;28;20223;-31
2022/07/03 08:12:21;;;;;;;1.55;0.88;;;21.80;95.80;;;;;;5048245;28;20204;-31
2022/07/03 08:14:48;;;;;;;0.68;0.60;;;21.80;95.80;;;;;;5049316;28;20772;-31
2022/07/03 08:17:20;;;;;;;2.40;0.60;;;21.90;95.80;;;;;;5045535;28;20200;-31
2022/07/03 08:19:47;;;;;;;1.48;0.60;;;21.90;95.70;;;;;;5047097;28;20220;-31
2022/07/03 08:22:17;;;;;;;1.85;0.90;;;21.90;95.70;;;;;;5049118;28;20305;-31
2022/07/03 08:24:44;;;;;;;1.67;0.95;;;22.00;95.70;;;;;;5049194;28;20216;-31
2022/07/03 08:27:11;;;;;;;1.25;0.90;;;22.00;95.80;;;;;;5047022;28;20204;-31
2022/07/03 08:29:41;;;;;;;2.53;0.70;;;22.00;95.70;;;;;;5044492;28;20224;-31
2022/07/03 08:32:11;;;;;;;1.92;0.65;;;22.10;95.80;;;;;;5048572;28;20489;-31
2022/07/03 08:34:39;;;;;;;2.17;0.80;;;22.10;96.10;;;;;;5045406;28;20204;-31
2022/07/03 08:37:11;;;;;;;3.58;1.02;;;22.20;95.80;;;;;;5047867;28;20641;-31
2022/07/03 08:39:41;;;;;;;2.33;0.90;;;22.20;95.80;;;;;;5047879;28;20212;-31
2022/07/03 08:42:13;;;;;;;3.35;0.85;;;22.20;95.80;;;;;;5048811;28;20215;-31
2022/07/03 08:44:46;;;;;;;4.55;1.08;;;22.20;95.80;;;;;;5046776;28;20212;-31
2022/07/03 08:47:19;;;;;;;4.07;1.20;;;22.30;96.00;;;;;;5031275;28;20235;-31
2022/07/03 08:49:48;;;;;;;3.90;1.00;;;22.30;96.00;;;;;;5045623;28;20686;-31
2022/07/03 08:52:22;;;;;;;2.80;1.10;;;22.30;96.00;;;;;;5045814;28;20746;-31
2022/07/03 08:54:50;;;;;;;2.35;0.90;;;22.40;96.00;;;;;;5046889;28;20317;-31
2022/07/03 08:57:21;;;;;;;2.42;1.08;;;22.40;96.00;;;;;;5046589;28;20207;-31
2022/07/03 08:59:53;;;;;;;3.10;0.93;;;22.40;96.30;;;;;;5045022;28;20250;-31
2022/07/03 09:02:21;;;;;;;2.47;0.80;;;22.40;96.00;;;;;;5046185;28;20709;-31
2022/07/03 09:04:49;;;;;;;3.35;0.80;;;22.50;96.00;;;;;;5060786;28;20273;-31
2022/07/03 09:07:19;;;;;;;1.85;1.13;;;22.40;96.00;;;;;;5036366;28;20200;-31
2022/07/03 09:09:51;;;;;;;2.80;0.77;;;22.50;96.10;;;;;;5046508;28;20262;-34
2022/07/03 09:12:21;;;;;;;1.50;0.75;;;22.50;96.20;;;;;;5047810;28;20231;-32
2022/07/03 09:14:51;;;;;;;3.08;0.88;;;22.50;96.20;;;;;;5061834;28;20708;-32
2022/07/03 09:17:21;;;;;;;5.05;1.08;;;22.50;96.20;;;;;;5046749;28;20833;-32
2022/07/03 09:19:51;;;;;;;3.00;1.10;;;22.60;96.10;;;;;;5039195;28;20216;-31
2022/07/03 09:22:25;;;;;;;2.28;0.80;;;22.70;96.10;;;;;;5046998;28;20254;-31
2022/07/03 09:25:02;;;;;;;1.58;0.82;;;22.70;96.10;;;;;;5048232;28;20199;-31
2022/07/03 09:27:29;;;;;;;1.98;0.82;;;22.70;96.10;;;;;;5043044;28;20224;-31
2022/07/03 09:30:04;;;;;;;1.27;0.88;;;22.70;96.10;;;;;;5033094;28;20200;-31
2022/07/03 09:32:37;;;;;;;1.63;0.73;;;22.70;96.10;;;;;;5043999;28;20200;-32
2022/07/03 09:35:25;;;;;;;0.77;0.55;;;22.80;96.20;;;;;;5044694;28;20204;-31
2022/07/03 09:38:01;;;;;;;3.28;0.95;;;22.80;96.10;;;;;;5046144;28;20508;-32
2022/07/03 09:40:52;;;;;;;3.25;0.90;;;22.80;96.20;;;;;;5044061;28;20682;-31
2022/07/03 09:43:29;;;;;;;2.58;0.90;;;22.90;96.20;;;;;;5040957;28;20623;-31
2022/07/03 09:46:05;;;;;;;2.13;0.90;;;23.00;96.30;;;;;;5038597;28;20262;-31
2022/07/03 09:48:44;;;;;;;1.60;0.68;;;23.00;96.40;;;;;;5046768;28;20200;-31
2022/07/03 09:51:26;;;;;;;1.30;0.73;;;23.10;96.60;;;;;;5046255;28;20208;-32
2022/07/03 09:53:58;;;;;;;2.15;0.60;;;23.20;96.40;;;;;;5042261;28;20576;-31
2022/07/03 09:56:36;;;;;;;4.03;0.95;;;23.30;96.20;;;;;;5043214;28;20305;-31
2022/07/03 09:59:15;;;;;;;0.77;0.52;;;23.40;96.30;;;;;;5060190;28;20601;-31
2022/07/03 10:01:46;;;;;;;0.82;0.60;;;23.40;95.90;;;;;;5043984;28;20687;-31
2022/07/03 10:04:24;;;;;;;1.45;0.43;;;23.40;96.00;;;;;;5045159;28;20578;-32
2022/07/03 10:06:57;;;;;;;1.08;0.70;;;23.50;95.90;;;;;;5041203;28;20737;-31
2022/07/03 10:09:26;;;;;;;1.00;0.50;;;23.50;95.90;;;;;;5047024;28;20214;-31
2022/07/03 10:11:55;;;;;;;2.08;0.80;;;23.50;95.80;;;;;;5046307;28;20294;-31
2022/07/03 10:14:29;;;;;;;1.42;0.60;;;23.50;95.70;;;;;;5047279;28;20274;-32
2022/07/03 10:17:01;;;;;;;1.10;0.50;;;23.50;95.80;;;;;;5047110;28;20227;-31
2022/07/03 10:19:41;;;;;;;2.75;0.52;;;23.50;95.90;;;;;;5045543;28;20532;-31
2022/07/03 10:22:21;;;;;;;1.45;0.77;;;23.60;96.10;;;;;;5044761;28;20200;-31
2022/07/03 10:24:52;;;;;;;1.52;0.75;;;23.70;96.50;;;;;;5026465;28;20227;-31
2022/07/03 10:27:20;;;;;;;1.70;0.80;;;23.80;95.90;;;;;;5042377;28;20718;-31
2022/07/03 10:29:51;;;;;;;1.35;0.70;;;23.80;96.10;;;;;;5027167;28;20251;-32
2022/07/03 10:32:18;;;;;;;1.58;0.50;;;23.80;96.10;;;;;;5027149;28;20251;-31
2022/07/03 10:34:46;;;;;;;1.88;0.63;;;23.90;96.20;;;;;;5035493;28;20670;-31
2022/07/03 10:37:23;;;;;;;2.00;0.70;;;24.00;96.00;;;;;;5046574;28;20552;-31
2022/07/03 10:46:10;;;;;;;1.05;0.60;;;24.20;96.20;;;;;;5046950;28;20212;-32
2022/07/03 10:49:03;;;;;;;3.15;0.70;;;24.30;96.20;;;;;;5030197;28;20219;-31
2022/07/03 10:51:54;;;;;;;1.05;0.60;;;24.30;96.20;;;;;;5059353;28;20231;-39
2022/07/03 10:54:22;;;;;;;3.10;0.80;;;24.40;95.90;;;;;;5058791;28;20650;-32
2022/07/03 10:56:59;;;;;;;2.20;0.50;;;24.50;95.20;;;;;;5043423;28;20231;-32
2022/07/03 10:59:34;;;;;;;1.63;0.70;;;24.50;95.60;;;;;;5037353;28;20200;-32
2022/07/03 11:02:32;;;;;;;1.02;0.77;;;24.50;95.50;;;;;;5044059;28;20209;-32
2022/07/03 11:05:02;;;;;;;1.63;0.50;;;24.60;95.30;;;;;;5039522;28;20219;-31
2022/07/03 11:07:50;;;;;;;0.80;0.32;;;24.60;95.20;;;;;;5043812;28;20567;-32
2022/07/03 11:10:18;;;;;;;0.77;0.40;;;24.60;95.30;;;;;;5045920;28;20747;-31
2022/07/03 11:13:15;;;;;;;1.83;0.65;;;24.60;94.90;;;;;;5046229;28;20200;-31
2022/07/03 11:15:50;;;;;;;2.65;0.50;;;24.70;94.60;;;;;;5040720;28;20479;-31
2022/07/03 11:18:35;;;;;;;0.77;0.50;;;24.70;95.00;;;;;;5044933;28;20550;-31
2022/07/03 11:21:20;;;;;;;1.85;0.60;;;24.70;94.50;;;;;;5040085;28;20206;-32
2022/07/03 11:24:19;;;;;;;4.97;0.70;;;24.60;94.40;;;;;;5042318;28;20200;-31
2022/07/03 11:27:08;;;;;;;0.68;0.40;;;24.60;94.00;;;;;;5038589;28;20246;-32
2022/07/03 11:29:37;;;;;;;3.65;0.50;;;24.60;94.30;;;;;;5042590;28;20236;-31
2022/07/03 11:32:42;;;;;;;0.38;0.38;;;24.50;94.60;;;;;;5043259;28;20212;-33
2022/07/03 11:35:42;;;;;;;0.80;0.52;;;24.60;94.30;;;;;;5048429;28;20748;-40
2022/07/03 11:38:14;;;;;;;0.55;0.30;;;24.50;94.20;;;;;;5030576;28;20236;-40
2022/07/03 11:40:45;;;;;;;0.85;0.50;;;24.60;94.80;;;;;;5049092;28;20293;-40
2022/07/03 11:43:12;;;;;;;2.30;0.80;;;24.50;94.50;;;;;;5046991;28;20212;-40
2022/07/03 11:45:41;;;;;;;1.13;0.50;;;24.60;94.30;;;;;;5049541;28;20216;-40
2022/07/03 11:48:27;;;;;;;0.82;0.50;;;24.60;94.30;;;;;;5050319;28;20574;-43
2022/07/03 11:51:03;;;;;;;3.25;2.30;;;24.60;94.30;;;;;;5049964;28;20670;-40
2022/07/03 11:53:36;;;;;;;2.22;1.40;;;24.60;94.40;;;;;;5046545;28;20218;-40
2022/07/03 11:56:04;;;;;;;1.30;0.80;;;24.60;93.90;;;;;;5045546;28;20266;-40
2022/07/03 11:58:58;;;;;;;3.05;0.52;;;24.60;94.10;;;;;;5047417;28;20200;-41
2022/07/03 12:01:25;;;;;;;0.75;0.47;;;24.60;94.00;;;;;;5044114;28;20207;-40
2022/07/03 12:04:14;;;;;;;1.60;0.50;;;24.60;93.80;;;;;;5049786;28;20208;-40
2022/07/03 12:06:49;;;;;;;1.55;0.55;;;24.60;93.40;;;;;;5051988;28;20235;-40
2022/07/03 12:09:27;;;;;;;1.23;0.50;;;24.50;92.70;;;;;;5051233;28;20234;-41
2022/07/03 12:12:10;;;;;;;1.92;0.60;;;24.40;93.20;;;;;;5046300;28;20204;-40
2022/07/03 12:14:51;;;;;;;3.03;0.65;;;24.40;93.60;;;;;;5048163;28;20682;-40
2022/07/03 12:17:22;;;;;;;0.90;0.57;;;24.30;93.60;;;;;;5046977;28;20231;-40
2022/07/03 12:20:03;;;;;;;1.92;0.70;;;24.40;93.30;;;;;;5048706;28;20204;-40
2022/07/03 12:22:37;;;;;;;2.88;1.23;;;24.30;93.70;;;;;;5062415;28;20208;-40
2022/07/03 12:25:12;;;;;;;1.48;0.55;;;24.30;93.40;;;;;;5044102;28;20254;-40
2022/07/03 12:27:42;;;;;;;1.13;0.50;;;24.30;92.30;;;;;;5049246;28;20231;-40
2022/07/03 12:30:24;;;;;;;1.08;0.60;;;24.30;92.80;;;;;;5048721;28;20259;-40
2022/07/03 12:32:56;;;;;;;2.70;0.60;;;24.30;93.00;;;;;;5046898;28;20720;-41
2022/07/03 12:35:29;;;;;;;1.45;0.70;;;24.30;93.20;;;;;;5038487;28;20208;-40
2022/07/03 12:37:57;;;;;;;1.63;0.40;;;24.30;93.40;;;;;;5048630;28;20240;-32
2022/07/03 12:40:24;;;;;;;1.83;0.93;;;24.30;93.30;;;;;;5042571;28;20192;-31
2022/07/03 12:42:58;;;;;;;10.60;1.75;;;24.40;93.20;;;;;;5049002;28;20862;-32
2022/07/03 12:45:28;;;;;;;3.08;0.70;;;24.40;93.20;;;;;;5047555;28;20204;-31
2022/07/03 12:48:03;;;;;;;2.03;1.23;;;24.40;92.90;;;;;;5046049;28;20212;-31
2022/07/03 12:50:54;;;;;;;2.95;2.03;;;24.50;92.90;;;;;;5044324;28;20234;-32
2022/07/03 12:53:32;;;;;;;2.38;1.30;;;24.60;93.20;;;;;;5047246;28;20215;-32
2022/07/03 12:56:02;;;;;;;1.48;0.73;;;24.60;93.40;;;;;;5047561;28;20315;-32
2022/07/03 13:01:38;;;;;;;5.40;0.63;;;24.70;93.30;;;;;;5047891;28;20746;-32
2022/07/03 13:04:08;;;;;;;2.58;0.50;;;24.80;93.00;;;;;;5045571;28;20239;-33
2022/07/03 13:06:38;;;;;;;2.13;0.95;;;24.80;92.90;;;;;;5046685;28;20724;-32
2022/07/03 13:09:07;;;;;;;1.92;0.98;;;24.90;93.10;;;;;;5048316;28;20196;-32
2022/07/03 13:11:35;;;;;;;2.20;0.50;;;24.90;92.50;;;;;;5046255;28;20680;-32
2022/07/03 13:14:09;;;;;;;1.58;0.70;;;25.00;92.80;;;;;;5040159;28;20243;-32
2022/07/03 13:16:53;;;;;;;4.53;2.45;;;25.00;93.00;;;;;;5047563;28;20713;-32
2022/07/03 13:19:24;;;;;;;2.80;1.17;;;25.10;93.00;;;;;;5046092;28;20192;-32
2022/07/03 13:21:54;;;;;;;1.55;0.82;;;25.10;92.70;;;;;;5027945;28;20229;-32
2022/07/03 13:24:24;;;;;;;1.67;0.60;;;25.10;92.70;;;;;;5046914;28;20254;-32
2022/07/03 13:26:53;;;;;;;1.33;0.75;;;25.10;92.80;;;;;;5046257;28;20570;-32
2022/07/03 13:29:23;;;;;;;1.77;0.80;;;25.10;93.00;;;;;;5045506;28;20204;-32
2022/07/03 13:31:51;;;;;;;1.05;0.40;;;25.10;92.90;;;;;;5046114;28;20216;-32
2022/07/03 13:34:20;;;;;;;2.47;1.50;;;25.10;93.10;;;;;;5045899;28;20203;-32